createdAt,value
2018-09-13T00:01:34.529Z,9.40
2018-09-13T00:04:03.632Z,8.33
2018-09-13T00:06:32.910Z,8.93
2018-09-13T00:09:01.959Z,8.80
2018-09-13T00:11:31.030Z,10.17
2018-09-13T00:14:00.138Z,8.77
2018-09-13T00:16:30.044Z,11.07
2018-09-13T00:18:59.060Z,9.33
2018-09-13T00:21:28.095Z,9.67
2018-09-13T00:23:57.073Z,10.13
2018-09-13T00:26:26.091Z,11.37
2018-09-13T00:28:55.102Z,10.33
2018-09-13T00:31:24.079Z,10.47
2018-09-13T00:33:53.069Z,9.90
2018-09-13T00:36:22.203Z,10.00
2018-09-13T00:38:51.159Z,9.83
2018-09-13T00:41:20.155Z,9.60
2018-09-13T00:43:49.271Z,10.07
2018-09-13T00:46:18.303Z,8.90
2018-09-13T00:48:47.311Z,9.40
2018-09-13T00:51:16.306Z,8.90
2018-09-13T00:53:45.321Z,9.07
2018-09-13T00:56:14.314Z,9.17
2018-09-13T00:58:43.333Z,8.73
2018-09-13T01:01:12.515Z,9.77
2018-09-13T01:03:42.378Z,9.50
2018-09-13T01:06:11.350Z,9.90
2018-09-13T01:08:40.370Z,9.73
2018-09-13T01:11:09.385Z,9.20
2018-09-13T01:13:38.427Z,8.93
2018-09-13T01:16:07.466Z,8.67
2018-09-13T01:18:36.475Z,9.77
2018-09-13T01:21:05.467Z,10.93
2018-09-13T01:23:35.470Z,11.13
2018-09-13T01:26:04.605Z,9.97
2018-09-13T01:28:33.630Z,10.27
2018-09-13T01:31:02.662Z,9.97
2018-09-13T01:33:31.674Z,10.43
2018-09-13T01:36:00.740Z,10.57
2018-09-13T01:38:29.721Z,11.13
2018-09-13T01:40:58.733Z,10.90
2018-09-13T01:43:27.771Z,12.10
2018-09-13T01:45:56.842Z,9.83
2018-09-13T01:48:25.827Z,11.20
2018-09-13T01:50:54.865Z,11.80
2018-09-13T01:53:23.846Z,11.23
2018-09-13T01:55:52.838Z,11.83
2018-09-13T01:58:21.858Z,11.53
2018-09-13T02:00:50.857Z,11.60
2018-09-13T02:03:19.906Z,10.73
2018-09-13T02:05:48.923Z,10.63
2018-09-13T02:08:17.974Z,9.93
2018-09-13T02:10:47.017Z,9.47
2018-09-13T02:13:16.025Z,10.00
2018-09-13T02:15:45.070Z,10.73
2018-09-13T02:18:14.051Z,10.40
2018-09-13T02:20:43.072Z,11.60
2018-09-13T02:23:12.120Z,11.10
2018-09-13T02:25:41.146Z,12.40
2018-09-13T02:28:10.132Z,13.30
2018-09-13T02:30:39.209Z,11.90
2018-09-13T02:33:08.258Z,12.80
2018-09-13T02:35:37.242Z,12.83
2018-09-13T02:38:06.222Z,13.33
2018-09-13T02:40:35.257Z,14.17
2018-09-13T02:43:04.290Z,14.77
2018-09-13T02:45:33.282Z,13.30
2018-09-13T02:48:02.350Z,15.53
2018-09-13T02:50:31.355Z,16.93
2018-09-13T02:53:00.350Z,15.20
2018-09-13T02:55:29.353Z,15.57
2018-09-13T02:57:58.362Z,16.50
2018-09-13T03:00:27.358Z,16.20
2018-09-13T03:02:56.420Z,16.37
2018-09-13T03:05:25.386Z,16.07
2018-09-13T03:07:54.423Z,15.43
2018-09-13T03:10:23.429Z,15.00
2018-09-13T03:12:52.414Z,16.10
2018-09-13T03:15:21.406Z,15.13
2018-09-13T03:17:50.394Z,14.07
2018-09-13T03:20:19.486Z,16.77
2018-09-13T03:22:48.474Z,15.70
2018-09-13T03:25:17.552Z,15.13
2018-09-13T03:27:46.586Z,17.27
2018-09-13T03:30:15.839Z,17.60
2018-09-13T03:32:44.841Z,17.40
2018-09-13T03:35:13.914Z,18.27
2018-09-13T03:37:42.877Z,17.00
2018-09-13T03:40:11.862Z,18.00
2018-09-13T03:42:41.026Z,18.03
2018-09-13T03:45:10.058Z,17.57
2018-09-13T03:47:39.052Z,17.03
2018-09-13T03:50:08.425Z,18.23
2018-09-13T03:52:37.428Z,19.13
2018-09-13T03:55:06.468Z,20.03
2018-09-13T03:57:35.506Z,18.87
2018-09-13T04:00:04.647Z,19.20
2018-09-13T04:02:33.658Z,17.97
2018-09-13T04:05:02.713Z,22.67
2018-09-13T04:07:31.730Z,24.77
2018-09-13T04:10:00.791Z,22.03
2018-09-13T04:12:29.799Z,19.33
2018-09-13T04:14:58.821Z,23.20
2018-09-13T04:17:28.119Z,20.70
2018-09-13T04:19:57.107Z,20.70
2018-09-13T04:22:26.156Z,18.17
2018-09-13T04:24:55.820Z,20.57
2018-09-13T04:27:24.786Z,21.77
2018-09-13T04:29:53.797Z,22.53
2018-09-13T04:32:22.879Z,22.83
2018-09-13T04:34:52.569Z,22.37
2018-09-13T04:37:22.271Z,23.30
2018-09-13T04:39:51.297Z,23.63
2018-09-13T04:42:20.410Z,20.13
2018-09-13T04:44:49.394Z,21.83
2018-09-13T04:47:18.369Z,23.40
2018-09-13T04:49:47.417Z,21.03
2018-09-13T04:52:16.406Z,19.60
2018-09-13T04:54:45.373Z,20.73
2018-09-13T04:57:14.649Z,18.97
2018-09-13T04:59:43.625Z,20.03
2018-09-13T05:02:12.632Z,19.27
2018-09-13T05:04:41.740Z,19.13
2018-09-13T05:07:10.721Z,19.50
2018-09-13T05:09:39.709Z,21.63
2018-09-13T05:12:08.790Z,19.83
2018-09-13T05:14:38.095Z,19.23
2018-09-13T05:17:07.081Z,21.37
2018-09-13T05:19:36.070Z,19.17
2018-09-13T05:22:05.073Z,19.43
2018-09-13T05:24:34.063Z,20.73
2018-09-13T05:27:03.068Z,18.87
2018-09-13T05:29:32.050Z,18.73
2018-09-13T05:32:01.077Z,18.53
2018-09-13T05:34:30.078Z,20.53
2018-09-13T05:36:59.102Z,19.90
2018-09-13T05:39:28.062Z,22.70
2018-09-13T05:41:57.053Z,20.80
2018-09-13T05:44:26.059Z,18.70
2018-09-13T05:46:55.058Z,19.53
2018-09-13T05:49:24.037Z,19.20
2018-09-13T05:51:53.145Z,18.80
2018-09-13T05:54:22.206Z,18.27
2018-09-13T05:56:51.197Z,19.37
2018-09-13T05:59:20.197Z,19.57
2018-09-13T06:01:49.266Z,19.63
2018-09-13T06:04:18.261Z,23.43
2018-09-13T06:06:47.287Z,22.13
2018-09-13T06:09:16.313Z,21.87
2018-09-13T06:11:45.355Z,19.70
2018-09-13T06:14:14.361Z,19.10
2018-09-13T06:16:43.383Z,21.37
2018-09-13T06:19:12.356Z,21.63
2018-09-13T06:21:41.318Z,19.87
2018-09-13T06:24:10.342Z,19.17
2018-09-13T06:26:39.396Z,19.83
2018-09-13T06:29:08.392Z,17.40
2018-09-13T06:31:37.406Z,17.50
2018-09-13T06:34:06.632Z,20.70
2018-09-13T06:36:35.622Z,17.83
2018-09-13T06:39:07.214Z,21.10
2018-09-13T06:41:36.228Z,19.37
2018-09-13T06:44:05.217Z,20.43
2018-09-13T06:46:34.209Z,16.93
2018-09-13T06:49:03.227Z,19.27
2018-09-13T06:51:32.312Z,18.43
2018-09-13T06:54:01.349Z,19.00
2018-09-13T06:56:30.610Z,18.57
2018-09-13T06:58:59.615Z,19.17
2018-09-13T07:01:28.626Z,18.70
2018-09-13T07:03:57.826Z,20.83
2018-09-13T07:06:26.807Z,19.53
2018-09-13T07:08:55.890Z,17.83
2018-09-13T07:11:25.091Z,20.33
2018-09-13T07:13:54.262Z,18.23
2018-09-13T07:16:23.284Z,18.00
2018-09-13T07:18:52.626Z,17.63
2018-09-13T07:21:21.598Z,20.23
2018-09-13T07:23:50.573Z,19.90
2018-09-13T07:26:19.562Z,17.67
2018-09-13T07:28:48.546Z,21.10
2018-09-13T07:31:17.531Z,19.37
2018-09-13T07:33:46.494Z,17.37
2018-09-13T07:36:15.552Z,18.67
2018-09-13T07:38:44.504Z,19.00
2018-09-13T07:41:13.522Z,18.87
2018-09-13T07:43:42.502Z,17.63
2018-09-13T07:46:11.526Z,18.23
2018-09-13T07:48:40.558Z,21.17
2018-09-13T07:51:09.682Z,21.53
2018-09-13T07:53:38.727Z,20.20
2018-09-13T07:56:07.774Z,16.50
2018-09-13T07:58:36.758Z,14.00
2018-09-13T08:01:05.753Z,14.07
2018-09-13T08:03:34.758Z,15.80
2018-09-13T08:06:03.779Z,14.23
2018-09-13T08:08:32.743Z,16.70
2018-09-13T08:11:01.767Z,11.93
2018-09-13T08:13:30.741Z,14.20
2018-09-13T08:15:59.822Z,14.53
2018-09-13T08:18:28.750Z,11.90
2018-09-13T08:20:57.794Z,13.73
2018-09-13T08:23:27.606Z,12.73
2018-09-13T08:25:56.554Z,15.53
2018-09-13T08:28:25.541Z,16.20
2018-09-13T08:30:54.612Z,16.50
2018-09-13T08:33:23.762Z,15.17
2018-09-13T08:35:52.598Z,18.67
2018-09-13T08:38:21.619Z,16.53
2018-09-13T08:40:50.595Z,14.87
2018-09-13T08:43:19.616Z,16.47
2018-09-13T08:45:48.637Z,16.93
2018-09-13T08:48:17.621Z,18.17
2018-09-13T08:50:46.634Z,14.60
2018-09-13T08:53:15.674Z,16.07
2018-09-13T08:55:44.825Z,15.00
2018-09-13T08:58:13.840Z,16.93
2018-09-13T09:00:42.928Z,16.67
2018-09-13T09:03:11.929Z,17.10
2018-09-13T09:05:40.930Z,16.13
2018-09-13T09:08:09.928Z,17.10
2018-09-13T09:10:38.914Z,17.03
2018-09-13T09:13:07.930Z,15.67
2018-09-13T09:15:36.922Z,17.10
2018-09-13T09:18:06.381Z,16.13
2018-09-13T09:20:35.373Z,12.53
2018-09-13T09:23:04.527Z,13.47
2018-09-13T09:25:33.466Z,16.43
2018-09-13T09:28:02.483Z,13.47
2018-09-13T09:30:31.483Z,16.47
2018-09-13T09:33:00.472Z,16.07
2018-09-13T09:35:29.542Z,16.43
2018-09-13T09:37:58.546Z,14.33
2018-09-13T09:40:27.653Z,14.83
2018-09-13T09:42:56.565Z,14.20
2018-09-13T09:45:25.534Z,14.03
2018-09-13T09:47:54.601Z,13.70
2018-09-13T09:50:23.609Z,14.60
2018-09-13T09:52:52.521Z,12.10
2018-09-13T09:55:22.974Z,11.53
2018-09-13T09:57:52.614Z,12.23
2018-09-13T10:02:30.059Z,11.80
2018-09-13T10:04:59.079Z,11.63
2018-09-13T10:07:28.050Z,11.50
2018-09-13T10:09:57.034Z,13.13
2018-09-13T10:12:26.017Z,10.97
2018-09-13T10:15:00.406Z,12.30
2018-09-13T10:17:34.489Z,9.73
2018-09-13T10:20:08.885Z,11.00
2018-09-13T10:22:43.290Z,9.97
2018-09-13T10:25:17.592Z,9.70
2018-09-13T10:27:51.834Z,10.90
2018-09-13T10:30:26.134Z,10.33
2018-09-13T10:33:00.459Z,10.87
2018-09-13T10:35:34.890Z,8.50
2018-09-13T10:38:09.207Z,9.73
2018-09-13T10:40:43.698Z,8.63
2018-09-13T10:43:18.002Z,11.37
2018-09-13T10:45:52.361Z,9.03
2018-09-13T10:48:25.670Z,10.37
2018-09-13T10:51:00.081Z,9.20
2018-09-13T10:53:34.462Z,9.37
2018-09-13T10:56:04.288Z,9.13
2018-09-13T10:58:33.307Z,9.13
2018-09-13T11:01:02.301Z,9.17
2018-09-13T11:03:32.046Z,8.53
2018-09-13T11:06:02.261Z,10.00
2018-09-13T11:08:31.254Z,12.50
2018-09-13T11:11:00.371Z,11.13
2018-09-13T11:13:36.665Z,10.57
2018-09-13T11:16:05.707Z,11.17
2018-09-13T11:18:34.670Z,10.27
2018-09-13T11:21:03.698Z,12.80
2018-09-13T11:23:32.670Z,12.40
2018-09-13T11:26:01.757Z,12.63
2018-09-13T11:28:30.778Z,11.10
2018-09-13T11:31:01.619Z,11.47
2018-09-13T11:33:31.014Z,10.67
2018-09-13T11:36:00.058Z,12.30
2018-09-13T11:38:29.014Z,11.77
2018-09-13T11:40:58.594Z,9.20
2018-09-13T11:43:28.037Z,12.07
2018-09-13T11:45:57.063Z,13.77
2018-09-13T11:48:26.095Z,11.50
2018-09-13T11:50:55.183Z,13.27
2018-09-13T11:53:24.345Z,11.50
2018-09-13T11:55:53.646Z,11.90
2018-09-13T11:58:22.632Z,13.43
2018-09-13T12:00:51.653Z,11.33
2018-09-13T12:03:20.658Z,11.93
2018-09-13T12:05:49.734Z,9.83
2018-09-13T12:08:18.738Z,9.70
2018-09-13T12:10:48.963Z,9.70
2018-09-13T12:13:18.342Z,11.60
2018-09-13T12:15:47.447Z,10.57
2018-09-13T12:18:16.829Z,9.73
2018-09-13T12:20:45.756Z,11.13
2018-09-13T12:23:15.057Z,8.43
2018-09-13T12:25:44.177Z,9.33
2018-09-13T12:28:13.243Z,10.07
2018-09-13T12:30:42.254Z,9.37
2018-09-13T12:33:11.523Z,8.57
2018-09-13T12:35:40.505Z,10.13
2018-09-13T12:38:09.497Z,9.17
2018-09-13T12:40:38.533Z,10.57
2018-09-13T12:43:07.548Z,10.13
2018-09-13T12:45:37.133Z,8.93
2018-09-13T12:48:06.118Z,8.00
2018-09-13T12:50:35.159Z,8.00
2018-09-13T12:53:04.276Z,8.10
2018-09-13T12:55:38.603Z,8.60
2018-09-13T12:58:07.603Z,10.00
2018-09-13T13:00:36.611Z,9.40
2018-09-13T13:03:05.653Z,8.97
2018-09-13T13:05:34.670Z,10.30
2018-09-13T13:08:03.865Z,9.93
2018-09-13T13:10:32.865Z,9.40
2018-09-13T13:13:01.887Z,8.33
2018-09-13T13:15:30.951Z,9.77
2018-09-13T13:17:59.968Z,8.37
2018-09-13T13:20:28.989Z,8.17
2018-09-13T13:22:58.541Z,8.03
2018-09-13T13:25:27.548Z,8.00
2018-09-13T13:27:56.652Z,6.87
2018-09-13T13:30:25.948Z,8.40
2018-09-13T13:32:55.043Z,9.33
2018-09-13T13:35:24.025Z,8.77
2018-09-13T13:37:52.993Z,7.50
2018-09-13T13:40:21.991Z,7.87
2018-09-13T13:42:50.961Z,8.00
2018-09-13T13:45:19.939Z,7.77
2018-09-13T13:47:48.910Z,7.20
2018-09-13T13:50:17.938Z,7.97
2018-09-13T13:52:46.897Z,8.27
2018-09-13T13:55:16.082Z,7.37
2018-09-13T13:57:45.387Z,7.57
2018-09-13T14:00:14.439Z,7.93
2018-09-13T14:02:43.542Z,8.10
2018-09-13T14:05:18.964Z,6.93
2018-09-13T14:07:47.997Z,7.80
2018-09-13T14:10:17.315Z,7.50
2018-09-13T14:12:46.318Z,7.23
2018-09-13T14:15:15.458Z,7.00
2018-09-13T14:17:44.480Z,6.57
2018-09-13T14:20:13.478Z,6.93
2018-09-13T14:22:42.470Z,7.27
2018-09-13T14:25:12.026Z,7.50
2018-09-13T14:27:41.119Z,6.00
2018-09-13T14:30:10.116Z,6.30
2018-09-13T14:32:39.383Z,6.30
2018-09-13T14:35:08.436Z,6.13
2018-09-13T14:37:37.405Z,6.00
2018-09-13T14:40:06.504Z,6.43
2018-09-13T14:42:35.467Z,6.63
2018-09-13T14:45:04.671Z,5.60
2018-09-13T14:47:33.680Z,6.60
2018-09-13T14:50:02.657Z,6.50
2018-09-13T14:52:31.674Z,7.27
2018-09-13T14:55:00.694Z,7.13
2018-09-13T14:57:29.686Z,10.37
2018-09-13T14:59:58.711Z,18.97
2018-09-13T15:02:27.709Z,24.73
2018-09-13T15:04:56.723Z,6.83
2018-09-13T15:07:25.870Z,6.47
2018-09-13T15:09:54.800Z,8.00
2018-09-13T15:12:23.775Z,7.67
2018-09-13T15:14:52.829Z,8.33
2018-09-13T15:17:21.854Z,9.40
2018-09-13T15:19:50.851Z,8.73
2018-09-13T15:22:19.909Z,9.83
2018-09-13T15:24:49.023Z,9.67
2018-09-13T15:27:17.959Z,9.10
2018-09-13T15:29:46.987Z,8.97
2018-09-13T15:32:15.978Z,9.57
2018-09-13T15:34:44.987Z,11.60
2018-09-13T15:37:13.964Z,11.80
2018-09-13T15:39:43.023Z,12.77
2018-09-13T15:42:11.991Z,12.43
2018-09-13T15:44:41.002Z,12.13
2018-09-13T15:47:09.978Z,14.33
2018-09-13T15:49:39.011Z,13.20
2018-09-13T15:52:08.022Z,14.87
2018-09-13T15:54:37.078Z,14.37
2018-09-13T15:57:06.084Z,14.40
2018-09-13T15:59:35.786Z,15.47
2018-09-13T16:02:05.674Z,14.70
2018-09-13T16:04:34.678Z,15.10
2018-09-13T16:07:03.814Z,15.50
2018-09-13T16:09:32.818Z,16.37
2018-09-13T16:12:01.815Z,15.63
2018-09-13T16:14:31.092Z,16.03
2018-09-13T16:17:00.172Z,14.60
2018-09-13T16:19:29.246Z,14.83
2018-09-13T16:21:58.262Z,16.83
2018-09-13T16:24:27.277Z,16.50
2018-09-13T16:26:56.250Z,18.20
2018-09-13T16:29:25.407Z,17.43
2018-09-13T16:31:54.410Z,18.20
2018-09-13T16:34:23.983Z,18.07
2018-09-13T16:37:08.619Z,16.77
2018-09-13T16:39:43.189Z,16.73
2018-09-13T16:42:17.495Z,17.93
2018-09-13T16:44:54.570Z,15.30
2018-09-13T16:47:30.643Z,15.53
2018-09-13T16:50:00.811Z,18.53
2018-09-13T16:52:30.804Z,14.83
2018-09-13T16:54:59.906Z,16.50
2018-09-13T16:57:28.911Z,17.10
2018-09-13T16:59:57.950Z,15.40
2018-09-13T17:02:27.007Z,16.83
2018-09-13T17:04:56.002Z,16.90
2018-09-13T17:07:25.046Z,16.73
2018-09-13T17:09:54.071Z,17.90
2018-09-13T17:12:23.138Z,19.10
2018-09-13T17:14:52.174Z,16.87
2018-09-13T17:17:21.157Z,17.37
2018-09-13T17:19:50.145Z,17.93
2018-09-13T17:22:19.157Z,20.33
2018-09-13T17:24:48.201Z,20.60
2018-09-13T17:27:17.228Z,18.97
2018-09-13T17:29:46.230Z,21.43
2018-09-13T17:32:15.222Z,20.63
2018-09-13T17:34:44.246Z,21.90
2018-09-13T17:37:13.338Z,22.17
2018-09-13T17:39:42.405Z,22.57
2018-09-13T17:42:11.398Z,23.77
2018-09-13T17:44:40.385Z,22.50
2018-09-13T17:49:43.568Z,21.77
2018-09-13T17:52:12.583Z,23.23
2018-09-13T17:54:41.655Z,21.60
2018-09-13T17:57:10.677Z,19.20
2018-09-13T17:59:39.701Z,21.70
2018-09-13T18:02:10.166Z,20.97
2018-09-13T18:04:39.286Z,23.27
2018-09-13T18:07:08.360Z,25.07
2018-09-13T18:09:37.947Z,22.90
2018-09-13T18:12:07.199Z,25.03
2018-09-13T18:14:36.201Z,25.63
2018-09-13T18:17:05.212Z,25.60
2018-09-13T18:19:35.907Z,24.63
2018-09-13T18:22:04.885Z,23.87
2018-09-13T18:24:34.610Z,24.30
2018-09-13T18:27:03.836Z,25.27
2018-09-13T18:29:33.013Z,24.80
2018-09-13T18:32:02.193Z,23.73
2018-09-13T18:34:31.330Z,24.03
2018-09-13T18:37:00.305Z,25.47
2018-09-13T18:39:29.627Z,22.90
2018-09-13T18:41:58.614Z,23.33
2018-09-13T18:44:27.634Z,26.30
2018-09-13T18:46:56.622Z,24.07
2018-09-13T18:49:27.478Z,22.40
2018-09-13T18:51:58.269Z,27.87
2018-09-13T18:54:27.419Z,24.00
2018-09-13T18:56:57.184Z,24.73
2018-09-13T18:59:26.309Z,24.80
2018-09-13T19:01:55.213Z,24.70
2018-09-13T19:04:24.258Z,26.73
2018-09-13T19:06:53.286Z,24.73
2018-09-13T19:09:22.277Z,24.57
2018-09-13T19:11:51.270Z,28.27
2018-09-13T19:14:21.009Z,26.53
2018-09-13T19:16:56.272Z,26.87
2018-09-13T19:19:26.033Z,26.37
2018-09-13T19:21:55.074Z,25.87
2018-09-13T19:24:24.639Z,26.83
2018-09-13T19:26:53.938Z,26.17
2018-09-13T19:29:25.391Z,26.27
2018-09-13T19:31:55.652Z,24.17
2018-09-13T19:34:25.373Z,25.53
2018-09-13T19:36:55.604Z,24.53
2018-09-13T19:39:24.611Z,24.40
2018-09-13T19:41:54.019Z,25.60
2018-09-13T19:44:23.226Z,25.23
2018-09-13T19:46:52.380Z,25.57
2018-09-13T19:49:22.098Z,24.33
2018-09-13T19:51:51.200Z,24.20
2018-09-13T19:54:20.381Z,25.87
2018-09-13T19:56:49.435Z,24.87
2018-09-13T19:59:19.526Z,25.90
2018-09-13T20:01:48.553Z,24.83
2018-09-13T20:04:17.903Z,23.70
2018-09-13T20:06:46.920Z,25.30
2018-09-13T20:09:16.161Z,24.53
2018-09-13T20:11:45.237Z,25.03
2018-09-13T20:14:14.195Z,24.67
2018-09-13T20:16:43.398Z,25.57
2018-09-13T20:19:12.485Z,26.17
2018-09-13T20:21:41.491Z,25.70
2018-09-13T20:24:10.531Z,29.90
2018-09-13T20:26:39.549Z,25.80
2018-09-13T20:29:08.553Z,27.53
2018-09-13T20:31:38.435Z,26.07
2018-09-13T20:34:07.534Z,24.83
2018-09-13T20:36:36.568Z,25.03
2018-09-13T20:39:07.938Z,29.37
2018-09-13T20:41:36.985Z,27.33
2018-09-13T20:44:06.522Z,27.73
2018-09-13T20:46:35.736Z,26.50
2018-09-13T20:49:04.897Z,26.03
2018-09-13T20:51:33.883Z,27.87
2018-09-13T20:54:02.895Z,27.40
2018-09-13T20:56:31.894Z,28.23
2018-09-13T20:59:00.868Z,26.57
2018-09-13T21:01:29.887Z,26.80
2018-09-13T21:03:58.879Z,27.30
2018-09-13T21:06:27.893Z,29.37
2018-09-13T21:08:56.888Z,28.87
2018-09-13T21:11:26.001Z,28.03
2018-09-13T21:13:55.013Z,29.67
2018-09-13T21:16:23.993Z,30.67
2018-09-13T21:18:53.008Z,28.47
2018-09-13T21:21:22.035Z,30.63
2018-09-13T21:23:51.073Z,29.03
2018-09-13T21:26:20.092Z,29.00
2018-09-13T21:28:49.322Z,30.60
2018-09-13T21:31:18.298Z,31.93
2018-09-13T21:33:47.367Z,27.67
2018-09-13T21:36:16.346Z,30.03
2018-09-13T21:38:45.385Z,28.57
2018-09-13T21:41:14.365Z,29.27
2018-09-13T21:43:43.359Z,28.73
2018-09-13T21:46:12.394Z,29.30
2018-09-13T21:48:41.397Z,32.30
2018-09-13T21:51:10.395Z,30.07
2018-09-13T21:53:39.405Z,32.00
2018-09-13T21:56:08.386Z,31.53
2018-09-13T21:58:37.401Z,31.30
2018-09-13T22:01:06.715Z,31.27
2018-09-13T22:03:35.707Z,31.27
2018-09-13T22:06:04.749Z,31.60
2018-09-13T22:08:33.818Z,30.67
2018-09-13T22:11:03.016Z,30.13
2018-09-13T22:13:32.707Z,30.30
2018-09-13T22:16:02.657Z,33.07
2018-09-13T22:18:32.041Z,33.43
2018-09-13T22:21:01.043Z,30.33
2018-09-13T22:23:30.051Z,34.60
2018-09-13T22:25:59.173Z,33.77
2018-09-13T22:28:28.209Z,35.73
2018-09-13T22:30:57.193Z,32.20
2018-09-13T22:33:26.230Z,33.80
2018-09-13T22:35:55.211Z,34.63
2018-09-13T22:38:24.315Z,35.13
2018-09-13T22:40:53.755Z,32.33
2018-09-13T22:43:22.908Z,33.73
2018-09-13T22:45:51.890Z,33.10
2018-09-13T22:48:21.188Z,31.93
2018-09-13T22:50:50.230Z,35.97
2018-09-13T22:53:19.242Z,35.97
2018-09-13T22:55:48.226Z,35.93
2018-09-13T22:58:17.288Z,33.47
2018-09-13T23:00:46.261Z,32.97
2018-09-13T23:03:15.245Z,34.53
2018-09-13T23:05:44.245Z,35.20
2018-09-13T23:08:13.282Z,34.90
2018-09-13T23:10:42.347Z,38.10
2018-09-13T23:13:11.527Z,35.87
2018-09-13T23:15:40.593Z,42.07
2018-09-13T23:18:09.665Z,36.30
2018-09-13T23:20:38.847Z,33.83
2018-09-13T23:23:07.842Z,42.33
2018-09-13T23:25:36.835Z,38.57
2018-09-13T23:28:05.971Z,38.73
2018-09-13T23:30:35.336Z,35.80
2018-09-13T23:33:04.410Z,38.10
2018-09-13T23:35:33.400Z,36.30
2018-09-13T23:38:02.411Z,35.30
2018-09-13T23:40:31.605Z,33.90
2018-09-13T23:43:00.556Z,34.97
2018-09-13T23:45:29.864Z,35.40
2018-09-13T23:47:59.412Z,37.37
2018-09-13T23:50:28.537Z,34.57
2018-09-13T23:52:57.605Z,37.73
2018-09-13T23:55:26.651Z,35.67
2018-09-13T23:57:55.659Z,34.97
